createdAt,value
2023-05-14T18:28:10.837Z,99346.84
2023-05-14T18:30:47.020Z,99361.44
2023-05-14T18:33:19.360Z,99361.28
2023-05-14T18:36:01.655Z,99370.34
2023-05-14T18:38:45.833Z,99372.41
2023-05-14T18:41:24.121Z,99370.91
2023-05-14T18:44:07.448Z,99363.91
2023-05-14T18:46:53.500Z,99366.34
2023-05-14T18:49:36.748Z,99352.56
2023-05-14T18:52:18.310Z,99358.31
2023-05-14T18:55:02.257Z,99361.44
2023-05-14T18:57:50.752Z,99356.44
2023-05-14T19:00:33.685Z,99362.09
2023-05-14T19:03:11.621Z,99361.28
2023-05-14T19:05:56.031Z,99363.00
2023-05-14T19:08:39.820Z,99371.06
2023-05-14T19:11:18.912Z,99363.09
2023-05-14T19:13:58.951Z,99362.72
2023-05-14T19:16:43.150Z,99357.63
2023-05-14T19:19:26.891Z,99356.56
2023-05-14T19:22:20.997Z,99359.88
2023-05-14T19:24:56.480Z,99350.09
2023-05-14T19:27:35.056Z,99332.31
2023-05-14T19:30:04.762Z,99335.03
2023-05-14T19:32:32.829Z,99324.78
2023-05-14T19:34:59.837Z,99331.41
2023-05-14T19:37:26.980Z,99323.59
2023-05-14T19:40:13.340Z,99317.50
2023-05-14T19:42:53.926Z,99317.09
2023-05-14T19:45:32.391Z,99312.44
2023-05-14T19:48:16.841Z,99317.91
2023-05-14T19:50:52.622Z,99309.97
2023-05-14T19:53:37.058Z,99304.03
2023-05-14T19:56:20.090Z,99302.91
2023-05-14T19:59:09.641Z,99301.75
2023-05-14T20:01:44.870Z,99302.06
2023-05-14T20:04:26.624Z,99303.63
2023-05-14T20:07:10.136Z,99298.13
2023-05-14T20:09:53.945Z,99301.97
2023-05-14T20:12:29.639Z,99313.56
2023-05-14T20:14:56.616Z,99315.31
2023-05-14T20:17:38.519Z,99311.31
2023-05-14T20:20:16.350Z,99305.38
2023-05-14T20:22:49.074Z,99299.06
2023-05-14T20:25:28.746Z,99293.88
2023-05-14T20:28:04.420Z,99290.56
2023-05-14T20:30:48.801Z,99287.94
2023-05-14T20:33:34.121Z,99294.53
2023-05-14T20:36:11.951Z,99292.63
2023-05-14T20:38:44.765Z,99291.88
2023-05-14T20:41:12.176Z,99280.22
2023-05-14T20:43:50.457Z,99275.38
2023-05-14T20:46:25.844Z,99275.03
2023-05-14T20:48:57.808Z,99278.75
2023-05-14T20:51:36.202Z,99276.59
2023-05-14T20:54:18.147Z,99272.16
2023-05-14T20:56:45.183Z,99275.63
2023-05-14T20:59:13.046Z,99266.91
2023-05-14T21:01:48.169Z,99282.44
2023-05-14T21:04:20.686Z,99279.06
2023-05-14T21:06:51.767Z,99281.38
2023-05-14T21:09:30.014Z,99286.22
2023-05-14T21:12:02.759Z,99266.59
2023-05-14T21:14:33.682Z,99260.75
2023-05-14T21:17:06.446Z,99240.47
2023-05-14T21:19:54.874Z,99254.91
2023-05-14T21:22:35.503Z,99249.22
2023-05-14T21:25:05.168Z,99242.19
2023-05-14T21:27:32.188Z,99243.88
2023-05-14T21:30:04.051Z,99239.06
2023-05-14T21:32:44.975Z,99234.34
2023-05-14T21:35:23.475Z,99234.59
2023-05-14T21:37:51.500Z,99231.72
2023-05-14T21:40:26.709Z,99236.41
2023-05-14T21:43:01.576Z,99228.94
2023-05-14T21:45:50.802Z,99226.81
2023-05-14T21:48:20.309Z,99228.44
2023-05-14T21:50:52.881Z,99218.59
2023-05-14T21:53:23.407Z,99217.34
2023-05-14T21:55:52.843Z,99209.38
2023-05-14T21:58:25.378Z,99202.75
2023-05-14T22:01:00.704Z,99191.25
2023-05-14T22:03:44.253Z,99189.13
2023-05-14T22:06:19.622Z,99178.28
2023-05-14T22:09:05.594Z,99178.28
2023-05-14T22:11:41.085Z,99176.69
2023-05-14T22:14:19.139Z,99167.91
2023-05-14T22:16:54.522Z,99165.69
2023-05-14T22:19:35.523Z,99167.50
2023-05-14T22:22:10.687Z,99170.69
2023-05-14T22:24:42.901Z,99166.81
2023-05-14T22:27:26.828Z,99180.47
2023-05-14T22:29:55.348Z,99193.38
2023-05-14T22:32:25.590Z,99181.06
2023-05-14T22:35:04.730Z,99182.44
2023-05-14T22:37:45.336Z,99186.41
2023-05-14T22:40:24.960Z,99171.75
2023-05-14T22:42:57.560Z,99171.44
2023-05-14T22:45:35.937Z,99172.91
2023-05-14T22:48:02.940Z,99176.19
2023-05-14T22:50:42.832Z,99190.00
2023-05-14T22:53:18.222Z,99171.53
2023-05-14T22:55:45.255Z,99158.88
2023-05-14T22:58:23.864Z,99158.94
2023-05-14T23:01:07.386Z,99163.88
2023-05-14T23:03:45.518Z,99156.16
2023-05-14T23:06:23.209Z,99158.13
2023-05-14T23:08:50.163Z,99153.94
2023-05-14T23:11:31.905Z,99158.44
2023-05-14T23:13:59.307Z,99155.06
2023-05-14T23:16:34.557Z,99157.28
2023-05-14T23:19:09.976Z,99160.25
2023-05-14T23:21:53.695Z,99159.91
2023-05-14T23:24:20.744Z,99174.19
2023-05-14T23:26:57.069Z,99157.41
2023-05-14T23:29:24.096Z,99158.00
2023-05-14T23:31:53.401Z,99153.31
2023-05-14T23:34:34.736Z,99150.94
2023-05-14T23:37:24.066Z,99148.88
2023-05-14T23:39:59.393Z,99140.72
2023-05-14T23:42:27.507Z,99137.44
2023-05-14T23:45:06.610Z,99127.41
2023-05-14T23:47:50.931Z,99106.59
2023-05-14T23:50:22.274Z,99105.41
2023-05-14T23:52:58.058Z,99104.75
2023-05-14T23:55:39.344Z,99110.31
2023-05-14T23:58:22.825Z,99109.56
